sensor_id;sensor_type;location;lat;lon;timestamp;P1;durP1;ratioP1;P2;durP2;ratioP2
75400;SDS011;63974;47.538;18.972;2023-02-24T00:01:10;19.75;;;9.13;;
75400;SDS011;63974;47.538;18.972;2023-02-24T00:04:15;25.67;;;12.05;;
75400;SDS011;63974;47.538;18.972;2023-02-24T00:07:19;19.58;;;8.80;;
75400;SDS011;63974;47.538;18.972;2023-02-24T00:10:22;19.20;;;9.00;;
75400;SDS011;63974;47.538;18.972;2023-02-24T00:13:25;17.20;;;7.87;;
75400;SDS011;63974;47.538;18.972;2023-02-24T00:16:28;15.95;;;8.38;;
75400;SDS011;63974;47.538;18.972;2023-02-24T00:19:31;14.60;;;8.75;;
75400;SDS011;63974;47.538;18.972;2023-02-24T00:22:34;17.38;;;8.07;;
75400;SDS011;63974;47.538;18.972;2023-02-24T00:25:36;16.13;;;8.18;;
75400;SDS011;63974;47.538;18.972;2023-02-24T00:28:39;16.37;;;9.10;;
75400;SDS011;63974;47.538;18.972;2023-02-24T00:31:42;17.38;;;8.85;;
75400;SDS011;63974;47.538;18.972;2023-02-24T00:34:46;14.43;;;8.75;;
75400;SDS011;63974;47.538;18.972;2023-02-24T00:37:51;21.70;;;10.07;;
75400;SDS011;63974;47.538;18.972;2023-02-24T00:40:55;18.13;;;9.25;;
75400;SDS011;63974;47.538;18.972;2023-02-24T00:44:01;24.60;;;10.63;;
75400;SDS011;63974;47.538;18.972;2023-02-24T00:47:10;23.33;;;9.43;;
75400;SDS011;63974;47.538;18.972;2023-02-24T00:50:14;25.67;;;11.05;;
75400;SDS011;63974;47.538;18.972;2023-02-24T00:53:17;22.13;;;10.13;;
75400;SDS011;63974;47.538;18.972;2023-02-24T00:56:21;19.27;;;8.80;;
75400;SDS011;63974;47.538;18.972;2023-02-24T00:59:24;21.57;;;8.83;;
75400;SDS011;63974;47.538;18.972;2023-02-24T01:02:28;18.65;;;9.23;;
75400;SDS011;63974;47.538;18.972;2023-02-24T01:05:34;16.45;;;8.07;;
75400;SDS011;63974;47.538;18.972;2023-02-24T01:08:38;20.85;;;9.32;;
75400;SDS011;63974;47.538;18.972;2023-02-24T01:11:44;21.15;;;9.70;;
75400;SDS011;63974;47.538;18.972;2023-02-24T01:15:07;18.87;;;8.83;;
75400;SDS011;63974;47.538;18.972;2023-02-24T01:18:13;18.88;;;9.18;;
75400;SDS011;63974;47.538;18.972;2023-02-24T01:21:17;25.05;;;9.88;;
75400;SDS011;63974;47.538;18.972;2023-02-24T01:24:21;26.42;;;10.40;;
75400;SDS011;63974;47.538;18.972;2023-02-24T01:27:25;27.98;;;10.95;;
75400;SDS011;63974;47.538;18.972;2023-02-24T01:30:28;25.20;;;9.83;;
75400;SDS011;63974;47.538;18.972;2023-02-24T01:33:32;23.42;;;9.50;;
75400;SDS011;63974;47.538;18.972;2023-02-24T01:36:39;27.25;;;10.30;;
75400;SDS011;63974;47.538;18.972;2023-02-24T01:39:46;26.23;;;11.02;;
75400;SDS011;63974;47.538;18.972;2023-02-24T01:42:49;20.92;;;10.10;;
75400;SDS011;63974;47.538;18.972;2023-02-24T01:45:53;29.83;;;10.03;;
75400;SDS011;63974;47.538;18.972;2023-02-24T01:48:56;18.80;;;9.50;;
75400;SDS011;63974;47.538;18.972;2023-02-24T01:52:14;22.80;;;9.43;;
75400;SDS011;63974;47.538;18.972;2023-02-24T01:58:33;22.80;;;9.27;;
75400;SDS011;63974;47.538;18.972;2023-02-24T02:01:38;21.73;;;9.23;;
75400;SDS011;63974;47.538;18.972;2023-02-24T02:04:53;20.10;;;9.25;;
75400;SDS011;63974;47.538;18.972;2023-02-24T02:08:00;17.75;;;9.23;;
75400;SDS011;63974;47.538;18.972;2023-02-24T02:11:05;18.05;;;9.02;;
75400;SDS011;63974;47.538;18.972;2023-02-24T02:14:11;20.17;;;8.65;;
75400;SDS011;63974;47.538;18.972;2023-02-24T02:17:16;18.27;;;8.13;;
75400;SDS011;63974;47.538;18.972;2023-02-24T02:21:01;18.98;;;9.05;;
75400;SDS011;63974;47.538;18.972;2023-02-24T02:24:17;18.35;;;9.02;;
75400;SDS011;63974;47.538;18.972;2023-02-24T02:27:40;20.00;;;9.02;;
75400;SDS011;63974;47.538;18.972;2023-02-24T02:40:47;23.05;;;10.00;;
75400;SDS011;63974;47.538;18.972;2023-02-24T02:50:40;22.00;;;9.57;;
75400;SDS011;63974;47.538;18.972;2023-02-24T02:57:13;22.35;;;10.30;;
75400;SDS011;63974;47.538;18.972;2023-02-24T03:00:21;23.38;;;11.77;;
75400;SDS011;63974;47.538;18.972;2023-02-24T03:03:31;23.02;;;9.90;;
75400;SDS011;63974;47.538;18.972;2023-02-24T03:06:46;20.63;;;10.10;;
75400;SDS011;63974;47.538;18.972;2023-02-24T03:10:00;24.23;;;9.80;;
75400;SDS011;63974;47.538;18.972;2023-02-24T03:13:11;18.80;;;10.52;;
75400;SDS011;63974;47.538;18.972;2023-02-24T03:16:21;20.55;;;10.20;;
75400;SDS011;63974;47.538;18.972;2023-02-24T03:19:29;23.60;;;10.88;;
75400;SDS011;63974;47.538;18.972;2023-02-24T03:22:40;23.47;;;9.97;;
75400;SDS011;63974;47.538;18.972;2023-02-24T03:25:50;20.38;;;10.20;;
75400;SDS011;63974;47.538;18.972;2023-02-24T03:29:19;25.83;;;11.18;;
75400;SDS011;63974;47.538;18.972;2023-02-24T03:32:50;25.27;;;10.88;;
75400;SDS011;63974;47.538;18.972;2023-02-24T03:35:58;22.55;;;10.82;;
75400;SDS011;63974;47.538;18.972;2023-02-24T03:39:04;25.10;;;11.63;;
75400;SDS011;63974;47.538;18.972;2023-02-24T03:42:19;21.73;;;10.32;;
75400;SDS011;63974;47.538;18.972;2023-02-24T03:45:23;19.58;;;9.20;;
75400;SDS011;63974;47.538;18.972;2023-02-24T03:48:29;19.00;;;9.25;;
75400;SDS011;63974;47.538;18.972;2023-02-24T03:51:34;18.90;;;9.07;;
75400;SDS011;63974;47.538;18.972;2023-02-24T03:54:45;17.40;;;9.27;;
75400;SDS011;63974;47.538;18.972;2023-02-24T04:05:13;15.77;;;8.55;;
75400;SDS011;63974;47.538;18.972;2023-02-24T04:08:39;18.52;;;9.40;;
75400;SDS011;63974;47.538;18.972;2023-02-24T04:15:42;19.08;;;9.23;;
75400;SDS011;63974;47.538;18.972;2023-02-24T04:18:50;21.17;;;9.75;;
75400;SDS011;63974;47.538;18.972;2023-02-24T04:21:54;21.67;;;10.18;;
75400;SDS011;63974;47.538;18.972;2023-02-24T04:25:01;18.65;;;8.73;;
75400;SDS011;63974;47.538;18.972;2023-02-24T04:28:07;17.17;;;8.77;;
75400;SDS011;63974;47.538;18.972;2023-02-24T04:31:14;18.30;;;9.20;;
75400;SDS011;63974;47.538;18.972;2023-02-24T04:34:19;19.02;;;9.90;;
75400;SDS011;63974;47.538;18.972;2023-02-24T04:37:23;18.67;;;9.65;;
75400;SDS011;63974;47.538;18.972;2023-02-24T04:40:26;23.35;;;10.85;;
75400;SDS011;63974;47.538;18.972;2023-02-24T04:43:29;22.67;;;10.23;;
75400;SDS011;63974;47.538;18.972;2023-02-24T04:46:32;23.35;;;10.60;;
75400;SDS011;63974;47.538;18.972;2023-02-24T04:49:35;24.08;;;10.60;;
75400;SDS011;63974;47.538;18.972;2023-02-24T04:52:37;25.10;;;9.80;;
75400;SDS011;63974;47.538;18.972;2023-02-24T04:55:44;22.70;;;11.00;;
75400;SDS011;63974;47.538;18.972;2023-02-24T04:58:51;22.40;;;11.20;;
75400;SDS011;63974;47.538;18.972;2023-02-24T05:01:54;20.17;;;9.75;;
75400;SDS011;63974;47.538;18.972;2023-02-24T05:04:56;20.05;;;9.32;;
75400;SDS011;63974;47.538;18.972;2023-02-24T05:08:02;21.60;;;9.40;;
75400;SDS011;63974;47.538;18.972;2023-02-24T05:11:13;23.70;;;9.85;;
75400;SDS011;63974;47.538;18.972;2023-02-24T05:14:21;22.70;;;10.23;;
75400;SDS011;63974;47.538;18.972;2023-02-24T05:17:24;18.67;;;8.90;;
75400;SDS011;63974;47.538;18.972;2023-02-24T05:20:27;27.25;;;10.65;;
75400;SDS011;63974;47.538;18.972;2023-02-24T05:23:48;23.98;;;10.43;;
75400;SDS011;63974;47.538;18.972;2023-02-24T05:26:53;19.38;;;9.70;;
75400;SDS011;63974;47.538;18.972;2023-02-24T05:30:00;23.83;;;10.00;;
75400;SDS011;63974;47.538;18.972;2023-02-24T05:33:05;24.08;;;11.15;;
75400;SDS011;63974;47.538;18.972;2023-02-24T05:36:10;23.05;;;9.75;;
75400;SDS011;63974;47.538;18.972;2023-02-24T05:39:17;22.00;;;9.90;;
75400;SDS011;63974;47.538;18.972;2023-02-24T05:42:21;25.42;;;10.48;;
75400;SDS011;63974;47.538;18.972;2023-02-24T05:45:24;21.27;;;10.10;;
75400;SDS011;63974;47.538;18.972;2023-02-24T05:48:32;24.63;;;11.48;;
75400;SDS011;63974;47.538;18.972;2023-02-24T05:51:37;23.27;;;10.38;;
75400;SDS011;63974;47.538;18.972;2023-02-24T05:54:40;24.52;;;11.02;;
75400;SDS011;63974;47.538;18.972;2023-02-24T05:57:45;25.40;;;12.95;;
75400;SDS011;63974;47.538;18.972;2023-02-24T06:00:48;30.80;;;13.67;;
75400;SDS011;63974;47.538;18.972;2023-02-24T06:03:51;29.27;;;13.68;;
75400;SDS011;63974;47.538;18.972;2023-02-24T06:06:55;26.52;;;13.27;;
75400;SDS011;63974;47.538;18.972;2023-02-24T06:10:00;27.58;;;13.18;;
75400;SDS011;63974;47.538;18.972;2023-02-24T06:13:03;29.50;;;14.38;;
75400;SDS011;63974;47.538;18.972;2023-02-24T06:16:08;26.97;;;13.93;;
75400;SDS011;63974;47.538;18.972;2023-02-24T06:19:14;28.00;;;15.10;;
75400;SDS011;63974;47.538;18.972;2023-02-24T06:22:19;29.95;;;15.10;;
75400;SDS011;63974;47.538;18.972;2023-02-24T06:25:24;30.70;;;15.40;;
75400;SDS011;63974;47.538;18.972;2023-02-24T06:28:30;26.02;;;14.15;;
75400;SDS011;63974;47.538;18.972;2023-02-24T06:31:34;30.07;;;13.87;;
75400;SDS011;63974;47.538;18.972;2023-02-24T06:34:38;29.65;;;14.77;;
75400;SDS011;63974;47.538;18.972;2023-02-24T06:37:41;28.10;;;14.10;;
75400;SDS011;63974;47.538;18.972;2023-02-24T06:40:44;31.17;;;14.93;;
75400;SDS011;63974;47.538;18.972;2023-02-24T06:43:50;30.35;;;15.50;;
75400;SDS011;63974;47.538;18.972;2023-02-24T06:46:54;26.13;;;14.30;;
75400;SDS011;63974;47.538;18.972;2023-02-24T06:49:57;25.77;;;14.25;;
75400;SDS011;63974;47.538;18.972;2023-02-24T06:53:00;29.85;;;15.98;;
75400;SDS011;63974;47.538;18.972;2023-02-24T06:56:04;32.45;;;17.40;;
75400;SDS011;63974;47.538;18.972;2023-02-24T06:59:16;27.10;;;14.50;;
75400;SDS011;63974;47.538;18.972;2023-02-24T07:02:40;31.43;;;16.07;;
75400;SDS011;63974;47.538;18.972;2023-02-24T07:05:46;29.27;;;14.95;;
75400;SDS011;63974;47.538;18.972;2023-02-24T07:08:59;35.65;;;16.13;;
75400;SDS011;63974;47.538;18.972;2023-02-24T07:12:03;30.48;;;16.30;;
75400;SDS011;63974;47.538;18.972;2023-02-24T07:15:07;29.35;;;15.05;;
75400;SDS011;63974;47.538;18.972;2023-02-24T07:18:10;31.57;;;15.50;;
75400;SDS011;63974;47.538;18.972;2023-02-24T07:21:16;28.67;;;15.85;;
75400;SDS011;63974;47.538;18.972;2023-02-24T07:24:20;27.95;;;16.23;;
75400;SDS011;63974;47.538;18.972;2023-02-24T07:27:26;32.35;;;16.27;;
75400;SDS011;63974;47.538;18.972;2023-02-24T07:30:29;31.35;;;16.58;;
75400;SDS011;63974;47.538;18.972;2023-02-24T07:33:44;31.70;;;16.53;;
75400;SDS011;63974;47.538;18.972;2023-02-24T07:36:47;33.75;;;17.13;;
75400;SDS011;63974;47.538;18.972;2023-02-24T07:39:50;32.88;;;17.40;;
75400;SDS011;63974;47.538;18.972;2023-02-24T07:42:53;31.65;;;16.48;;
75400;SDS011;63974;47.538;18.972;2023-02-24T07:46:03;33.08;;;17.08;;
75400;SDS011;63974;47.538;18.972;2023-02-24T07:49:11;35.80;;;18.63;;
75400;SDS011;63974;47.538;18.972;2023-02-24T07:52:16;35.55;;;17.25;;
75400;SDS011;63974;47.538;18.972;2023-02-24T07:55:19;35.05;;;18.67;;
75400;SDS011;63974;47.538;18.972;2023-02-24T07:58:22;34.58;;;18.00;;
75400;SDS011;63974;47.538;18.972;2023-02-24T08:01:25;36.67;;;17.42;;
75400;SDS011;63974;47.538;18.972;2023-02-24T08:04:29;30.43;;;17.43;;
75400;SDS011;63974;47.538;18.972;2023-02-24T08:07:34;34.33;;;17.40;;
75400;SDS011;63974;47.538;18.972;2023-02-24T08:10:38;33.25;;;16.58;;
75400;SDS011;63974;47.538;18.972;2023-02-24T08:13:42;33.90;;;17.85;;
75400;SDS011;63974;47.538;18.972;2023-02-24T08:16:47;31.13;;;17.92;;
75400;SDS011;63974;47.538;18.972;2023-02-24T08:19:53;35.53;;;17.73;;
75400;SDS011;63974;47.538;18.972;2023-02-24T08:23:17;31.65;;;17.05;;
75400;SDS011;63974;47.538;18.972;2023-02-24T08:26:25;35.65;;;18.73;;
75400;SDS011;63974;47.538;18.972;2023-02-24T08:29:32;30.73;;;17.25;;
75400;SDS011;63974;47.538;18.972;2023-02-24T08:32:41;35.40;;;16.38;;
75400;SDS011;63974;47.538;18.972;2023-02-24T08:35:49;28.00;;;15.93;;
75400;SDS011;63974;47.538;18.972;2023-02-24T08:38:54;29.10;;;16.23;;
75400;SDS011;63974;47.538;18.972;2023-02-24T08:42:00;28.33;;;15.10;;
75400;SDS011;63974;47.538;18.972;2023-02-24T08:45:03;25.40;;;13.63;;
75400;SDS011;63974;47.538;18.972;2023-02-24T08:48:07;22.48;;;13.23;;
75400;SDS011;63974;47.538;18.972;2023-02-24T08:51:24;26.97;;;12.73;;
75400;SDS011;63974;47.538;18.972;2023-02-24T08:54:30;22.73;;;10.82;;
75400;SDS011;63974;47.538;18.972;2023-02-24T08:57:33;16.40;;;8.07;;
75400;SDS011;63974;47.538;18.972;2023-02-24T09:00:37;17.95;;;8.55;;
75400;SDS011;63974;47.538;18.972;2023-02-24T09:03:55;12.55;;;8.05;;
75400;SDS011;63974;47.538;18.972;2023-02-24T09:06:59;14.40;;;7.33;;
75400;SDS011;63974;47.538;18.972;2023-02-24T09:10:14;14.85;;;7.47;;
75400;SDS011;63974;47.538;18.972;2023-02-24T09:13:19;12.43;;;6.55;;
75400;SDS011;63974;47.538;18.972;2023-02-24T09:16:23;15.30;;;7.32;;
75400;SDS011;63974;47.538;18.972;2023-02-24T09:22:47;12.53;;;7.23;;
75400;SDS011;63974;47.538;18.972;2023-02-24T09:26:04;11.55;;;5.47;;
75400;SDS011;63974;47.538;18.972;2023-02-24T09:29:12;12.48;;;5.90;;
75400;SDS011;63974;47.538;18.972;2023-02-24T09:32:35;9.32;;;5.88;;
75400;SDS011;63974;47.538;18.972;2023-02-24T09:35:38;12.35;;;5.53;;
75400;SDS011;63974;47.538;18.972;2023-02-24T09:38:49;11.30;;;5.70;;
75400;SDS011;63974;47.538;18.972;2023-02-24T09:42:03;13.05;;;5.65;;
75400;SDS011;63974;47.538;18.972;2023-02-24T09:45:15;9.48;;;5.40;;
75400;SDS011;63974;47.538;18.972;2023-02-24T09:48:38;13.45;;;6.03;;
75400;SDS011;63974;47.538;18.972;2023-02-24T09:51:45;11.32;;;5.90;;
75400;SDS011;63974;47.538;18.972;2023-02-24T09:54:54;10.13;;;5.23;;
75400;SDS011;63974;47.538;18.972;2023-02-24T10:04:34;9.95;;;5.47;;
75400;SDS011;63974;47.538;18.972;2023-02-24T10:07:56;16.92;;;6.57;;
75400;SDS011;63974;47.538;18.972;2023-02-24T10:11:00;12.63;;;7.13;;
75400;SDS011;63974;47.538;18.972;2023-02-24T10:14:09;10.32;;;5.68;;
75400;SDS011;63974;47.538;18.972;2023-02-24T10:17:22;9.77;;;5.13;;
75400;SDS011;63974;47.538;18.972;2023-02-24T10:20:30;14.55;;;5.60;;
75400;SDS011;63974;47.538;18.972;2023-02-24T10:33:43;10.48;;;5.03;;
75400;SDS011;63974;47.538;18.972;2023-02-24T10:36:47;8.35;;;4.43;;
75400;SDS011;63974;47.538;18.972;2023-02-24T10:39:54;9.88;;;4.63;;
75400;SDS011;63974;47.538;18.972;2023-02-24T10:43:18;8.23;;;4.17;;
75400;SDS011;63974;47.538;18.972;2023-02-24T10:46:31;10.90;;;3.92;;
75400;SDS011;63974;47.538;18.972;2023-02-24T10:49:45;11.27;;;4.70;;
75400;SDS011;63974;47.538;18.972;2023-02-24T10:53:14;13.23;;;4.40;;
75400;SDS011;63974;47.538;18.972;2023-02-24T10:56:40;7.95;;;4.30;;
75400;SDS011;63974;47.538;18.972;2023-02-24T11:03:11;8.18;;;4.30;;
75400;SDS011;63974;47.538;18.972;2023-02-24T11:06:34;9.25;;;5.07;;
75400;SDS011;63974;47.538;18.972;2023-02-24T11:09:43;9.35;;;4.05;;
75400;SDS011;63974;47.538;18.972;2023-02-24T11:12:53;9.90;;;4.68;;
75400;SDS011;63974;47.538;18.972;2023-02-24T11:16:16;8.40;;;3.50;;
75400;SDS011;63974;47.538;18.972;2023-02-24T11:19:43;9.93;;;3.72;;
75400;SDS011;63974;47.538;18.972;2023-02-24T11:22:49;9.27;;;4.55;;
75400;SDS011;63974;47.538;18.972;2023-02-24T11:26:40;8.02;;;3.90;;
75400;SDS011;63974;47.538;18.972;2023-02-24T11:29:41;11.55;;;4.38;;
75400;SDS011;63974;47.538;18.972;2023-02-24T11:39:49;12.93;;;4.47;;
75400;SDS011;63974;47.538;18.972;2023-02-24T11:43:02;9.13;;;4.43;;
75400;SDS011;63974;47.538;18.972;2023-02-24T11:46:21;8.93;;;3.45;;
75400;SDS011;63974;47.538;18.972;2023-02-24T11:49:49;7.37;;;3.20;;
75400;SDS011;63974;47.538;18.972;2023-02-24T11:53:17;7.97;;;4.15;;
75400;SDS011;63974;47.538;18.972;2023-02-24T11:56:37;10.40;;;4.65;;
75400;SDS011;63974;47.538;18.972;2023-02-24T11:59:47;8.05;;;3.88;;
75400;SDS011;63974;47.538;18.972;2023-02-24T12:06:17;9.97;;;4.47;;
75400;SDS011;63974;47.538;18.972;2023-02-24T12:22:27;8.00;;;4.30;;
75400;SDS011;63974;47.538;18.972;2023-02-24T12:29:23;8.88;;;4.35;;
75400;SDS011;63974;47.538;18.972;2023-02-24T12:36:01;7.07;;;3.58;;
75400;SDS011;63974;47.538;18.972;2023-02-24T12:39:17;10.30;;;4.50;;
75400;SDS011;63974;47.538;18.972;2023-02-24T12:42:25;14.35;;;4.60;;
75400;SDS011;63974;47.538;18.972;2023-02-24T12:52:30;11.23;;;4.60;;
75400;SDS011;63974;47.538;18.972;2023-02-24T12:59:14;18.42;;;4.22;;
75400;SDS011;63974;47.538;18.972;2023-02-24T13:09:13;8.85;;;3.70;;
75400;SDS011;63974;47.538;18.972;2023-02-24T13:12:28;10.27;;;3.87;;
75400;SDS011;63974;47.538;18.972;2023-02-24T13:15:51;10.20;;;3.80;;
75400;SDS011;63974;47.538;18.972;2023-02-24T13:19:05;9.70;;;3.30;;
75400;SDS011;63974;47.538;18.972;2023-02-24T13:22:21;7.25;;;3.85;;
75400;SDS011;63974;47.538;18.972;2023-02-24T13:28:35;11.07;;;4.53;;
75400;SDS011;63974;47.538;18.972;2023-02-24T13:34:47;10.38;;;3.50;;
75400;SDS011;63974;47.538;18.972;2023-02-24T13:37:52;15.90;;;3.78;;
75400;SDS011;63974;47.538;18.972;2023-02-24T13:44:29;7.07;;;3.13;;
75400;SDS011;63974;47.538;18.972;2023-02-24T13:47:40;9.18;;;3.22;;
75400;SDS011;63974;47.538;18.972;2023-02-24T13:54:29;9.68;;;3.78;;
75400;SDS011;63974;47.538;18.972;2023-02-24T13:58:10;9.32;;;3.25;;
75400;SDS011;63974;47.538;18.972;2023-02-24T14:01:30;8.37;;;3.27;;
75400;SDS011;63974;47.538;18.972;2023-02-24T14:04:50;8.20;;;3.75;;
75400;SDS011;63974;47.538;18.972;2023-02-24T14:07:54;9.68;;;3.90;;
75400;SDS011;63974;47.538;18.972;2023-02-24T14:10:58;7.35;;;3.70;;
75400;SDS011;63974;47.538;18.972;2023-02-24T14:14:02;5.68;;;3.03;;
75400;SDS011;63974;47.538;18.972;2023-02-24T14:17:06;8.23;;;4.50;;
75400;SDS011;63974;47.538;18.972;2023-02-24T14:20:40;10.82;;;3.92;;
75400;SDS011;63974;47.538;18.972;2023-02-24T14:23:43;10.93;;;4.53;;
75400;SDS011;63974;47.538;18.972;2023-02-24T14:26:57;10.77;;;4.22;;
75400;SDS011;63974;47.538;18.972;2023-02-24T14:30:01;8.82;;;4.05;;
75400;SDS011;63974;47.538;18.972;2023-02-24T14:33:05;13.20;;;4.00;;
75400;SDS011;63974;47.538;18.972;2023-02-24T14:36:20;10.45;;;3.72;;
75400;SDS011;63974;47.538;18.972;2023-02-24T14:39:27;9.82;;;3.90;;
75400;SDS011;63974;47.538;18.972;2023-02-24T14:42:31;8.60;;;3.35;;
75400;SDS011;63974;47.538;18.972;2023-02-24T14:45:34;9.93;;;3.60;;
75400;SDS011;63974;47.538;18.972;2023-02-24T14:48:37;9.77;;;4.70;;
75400;SDS011;63974;47.538;18.972;2023-02-24T14:51:40;10.85;;;5.00;;
75400;SDS011;63974;47.538;18.972;2023-02-24T14:54:47;12.63;;;4.10;;
75400;SDS011;63974;47.538;18.972;2023-02-24T14:58:03;10.90;;;4.45;;
75400;SDS011;63974;47.538;18.972;2023-02-24T15:01:14;13.85;;;3.20;;
75400;SDS011;63974;47.538;18.972;2023-02-24T15:07:28;9.05;;;4.25;;
75400;SDS011;63974;47.538;18.972;2023-02-24T15:10:33;10.27;;;4.03;;
75400;SDS011;63974;47.538;18.972;2023-02-24T15:13:47;9.00;;;3.60;;
75400;SDS011;63974;47.538;18.972;2023-02-24T15:16:59;8.63;;;3.22;;
75400;SDS011;63974;47.538;18.972;2023-02-24T15:20:23;12.83;;;3.30;;
75400;SDS011;63974;47.538;18.972;2023-02-24T15:23:32;7.93;;;3.60;;
75400;SDS011;63974;47.538;18.972;2023-02-24T15:26:37;10.57;;;4.15;;
75400;SDS011;63974;47.538;18.972;2023-02-24T15:29:41;7.93;;;3.40;;
75400;SDS011;63974;47.538;18.972;2023-02-24T15:32:45;8.35;;;3.78;;
75400;SDS011;63974;47.538;18.972;2023-02-24T15:35:54;7.27;;;3.27;;
75400;SDS011;63974;47.538;18.972;2023-02-24T15:39:02;11.85;;;3.60;;
75400;SDS011;63974;47.538;18.972;2023-02-24T15:42:15;7.38;;;2.97;;
75400;SDS011;63974;47.538;18.972;2023-02-24T15:48:31;7.75;;;3.85;;
75400;SDS011;63974;47.538;18.972;2023-02-24T15:51:36;9.07;;;3.53;;
75400;SDS011;63974;47.538;18.972;2023-02-24T15:54:45;12.95;;;3.78;;
75400;SDS011;63974;47.538;18.972;2023-02-24T15:57:54;10.48;;;4.78;;
75400;SDS011;63974;47.538;18.972;2023-02-24T16:01:00;20.52;;;4.22;;
75400;SDS011;63974;47.538;18.972;2023-02-24T16:04:04;10.45;;;3.30;;
75400;SDS011;63974;47.538;18.972;2023-02-24T16:07:15;10.80;;;3.83;;
75400;SDS011;63974;47.538;18.972;2023-02-24T16:10:28;14.30;;;3.90;;
75400;SDS011;63974;47.538;18.972;2023-02-24T16:13:31;8.10;;;3.75;;
75400;SDS011;63974;47.538;18.972;2023-02-24T16:16:34;8.10;;;3.65;;
75400;SDS011;63974;47.538;18.972;2023-02-24T16:19:37;12.32;;;3.53;;
75400;SDS011;63974;47.538;18.972;2023-02-24T16:22:40;12.40;;;3.67;;
75400;SDS011;63974;47.538;18.972;2023-02-24T16:25:43;13.50;;;3.50;;
75400;SDS011;63974;47.538;18.972;2023-02-24T16:28:54;7.93;;;3.58;;
75400;SDS011;63974;47.538;18.972;2023-02-24T16:31:58;8.07;;;3.13;;
75400;SDS011;63974;47.538;18.972;2023-02-24T16:35:01;8.82;;;3.55;;
75400;SDS011;63974;47.538;18.972;2023-02-24T16:38:04;8.70;;;3.60;;
75400;SDS011;63974;47.538;18.972;2023-02-24T16:41:08;9.80;;;3.20;;
75400;SDS011;63974;47.538;18.972;2023-02-24T16:44:11;14.20;;;3.72;;
75400;SDS011;63974;47.538;18.972;2023-02-24T16:47:19;11.75;;;3.78;;
75400;SDS011;63974;47.538;18.972;2023-02-24T16:50:28;7.95;;;3.75;;
75400;SDS011;63974;47.538;18.972;2023-02-24T16:53:34;7.93;;;3.23;;
75400;SDS011;63974;47.538;18.972;2023-02-24T16:56:37;10.40;;;2.90;;
75400;SDS011;63974;47.538;18.972;2023-02-24T16:59:40;13.05;;;3.40;;
75400;SDS011;63974;47.538;18.972;2023-02-24T17:02:43;11.55;;;4.10;;
75400;SDS011;63974;47.538;18.972;2023-02-24T17:05:47;13.77;;;3.83;;
75400;SDS011;63974;47.538;18.972;2023-02-24T17:08:51;11.33;;;3.90;;
75400;SDS011;63974;47.538;18.972;2023-02-24T17:11:54;11.95;;;4.07;;
75400;SDS011;63974;47.538;18.972;2023-02-24T17:14:57;11.88;;;3.58;;
75400;SDS011;63974;47.538;18.972;2023-02-24T17:18:00;8.48;;;3.30;;
75400;SDS011;63974;47.538;18.972;2023-02-24T17:21:03;17.75;;;4.18;;
75400;SDS011;63974;47.538;18.972;2023-02-24T17:24:11;13.57;;;4.73;;
75400;SDS011;63974;47.538;18.972;2023-02-24T17:27:16;10.68;;;3.30;;
75400;SDS011;63974;47.538;18.972;2023-02-24T17:30:24;10.75;;;3.63;;
75400;SDS011;63974;47.538;18.972;2023-02-24T17:33:30;10.20;;;3.90;;
75400;SDS011;63974;47.538;18.972;2023-02-24T17:36:32;25.15;;;9.10;;
75400;SDS011;63974;47.538;18.972;2023-02-24T17:39:35;17.67;;;6.67;;
75400;SDS011;63974;47.538;18.972;2023-02-24T17:42:39;16.05;;;5.78;;
75400;SDS011;63974;47.538;18.972;2023-02-24T17:45:43;15.18;;;4.80;;
75400;SDS011;63974;47.538;18.972;2023-02-24T17:48:47;15.32;;;5.28;;
75400;SDS011;63974;47.538;18.972;2023-02-24T17:51:50;20.77;;;6.78;;
75400;SDS011;63974;47.538;18.972;2023-02-24T17:54:53;13.07;;;6.17;;
75400;SDS011;63974;47.538;18.972;2023-02-24T17:57:58;18.10;;;6.60;;
75400;SDS011;63974;47.538;18.972;2023-02-24T18:01:02;15.82;;;6.30;;
75400;SDS011;63974;47.538;18.972;2023-02-24T18:04:09;11.07;;;5.05;;
75400;SDS011;63974;47.538;18.972;2023-02-24T18:07:15;12.48;;;5.60;;
75400;SDS011;63974;47.538;18.972;2023-02-24T18:10:19;17.33;;;7.83;;
75400;SDS011;63974;47.538;18.972;2023-02-24T18:13:21;17.05;;;7.63;;
75400;SDS011;63974;47.538;18.972;2023-02-24T18:16:25;21.27;;;9.30;;
75400;SDS011;63974;47.538;18.972;2023-02-24T18:19:28;16.45;;;7.05;;
75400;SDS011;63974;47.538;18.972;2023-02-24T18:22:31;21.13;;;7.45;;
75400;SDS011;63974;47.538;18.972;2023-02-24T18:25:35;17.53;;;6.93;;
75400;SDS011;63974;47.538;18.972;2023-02-24T18:28:37;21.92;;;6.10;;
75400;SDS011;63974;47.538;18.972;2023-02-24T18:31:40;15.15;;;6.20;;
75400;SDS011;63974;47.538;18.972;2023-02-24T18:34:45;15.05;;;6.38;;
75400;SDS011;63974;47.538;18.972;2023-02-24T18:37:48;20.27;;;6.80;;
75400;SDS011;63974;47.538;18.972;2023-02-24T18:41:02;16.57;;;4.97;;
75400;SDS011;63974;47.538;18.972;2023-02-24T18:44:08;13.15;;;5.85;;
75400;SDS011;63974;47.538;18.972;2023-02-24T18:47:11;12.75;;;5.40;;
75400;SDS011;63974;47.538;18.972;2023-02-24T18:50:15;18.20;;;5.72;;
75400;SDS011;63974;47.538;18.972;2023-02-24T18:53:19;20.60;;;10.63;;
75400;SDS011;63974;47.538;18.972;2023-02-24T18:56:24;22.43;;;9.33;;
75400;SDS011;63974;47.538;18.972;2023-02-24T18:59:28;16.48;;;6.55;;
75400;SDS011;63974;47.538;18.972;2023-02-24T19:02:31;14.43;;;5.95;;
75400;SDS011;63974;47.538;18.972;2023-02-24T19:05:34;17.60;;;7.47;;
75400;SDS011;63974;47.538;18.972;2023-02-24T19:08:41;21.27;;;8.32;;
75400;SDS011;63974;47.538;18.972;2023-02-24T19:11:44;15.07;;;6.30;;
75400;SDS011;63974;47.538;18.972;2023-02-24T19:14:50;13.60;;;4.97;;
75400;SDS011;63974;47.538;18.972;2023-02-24T19:17:54;12.60;;;4.03;;
75400;SDS011;63974;47.538;18.972;2023-02-24T19:20:57;14.77;;;4.70;;
75400;SDS011;63974;47.538;18.972;2023-02-24T19:24:01;10.07;;;4.70;;
75400;SDS011;63974;47.538;18.972;2023-02-24T19:27:05;11.37;;;4.10;;
75400;SDS011;63974;47.538;18.972;2023-02-24T19:30:08;11.52;;;4.32;;
75400;SDS011;63974;47.538;18.972;2023-02-24T19:33:12;12.63;;;5.10;;
75400;SDS011;63974;47.538;18.972;2023-02-24T19:36:15;12.07;;;4.70;;
75400;SDS011;63974;47.538;18.972;2023-02-24T19:39:18;14.05;;;5.40;;
75400;SDS011;63974;47.538;18.972;2023-02-24T19:42:21;15.33;;;6.00;;
75400;SDS011;63974;47.538;18.972;2023-02-24T19:45:24;16.15;;;5.85;;
75400;SDS011;63974;47.538;18.972;2023-02-24T19:48:28;12.35;;;5.65;;
75400;SDS011;63974;47.538;18.972;2023-02-24T19:51:31;14.65;;;5.55;;
75400;SDS011;63974;47.538;18.972;2023-02-24T19:54:36;14.60;;;5.50;;
75400;SDS011;63974;47.538;18.972;2023-02-24T19:57:39;15.70;;;5.07;;
75400;SDS011;63974;47.538;18.972;2023-02-24T20:00:42;17.35;;;6.40;;
75400;SDS011;63974;47.538;18.972;2023-02-24T20:03:47;14.90;;;5.88;;
75400;SDS011;63974;47.538;18.972;2023-02-24T20:06:52;14.48;;;5.30;;
75400;SDS011;63974;47.538;18.972;2023-02-24T20:09:54;12.43;;;5.35;;
75400;SDS011;63974;47.538;18.972;2023-02-24T20:12:58;16.83;;;5.57;;
75400;SDS011;63974;47.538;18.972;2023-02-24T20:16:08;13.02;;;5.60;;
75400;SDS011;63974;47.538;18.972;2023-02-24T20:19:14;11.65;;;5.13;;
75400;SDS011;63974;47.538;18.972;2023-02-24T20:22:17;10.43;;;4.95;;